New Hampshire Logo

Hooksett, NH Condo Real Estate Listings

30 Total Real Estate Listings * Click on table heading to sort
Date Posted Property Type Style Address Price Living Area Lot Size Price/Sq Ft.
2018-08-15 Condo Townhouse 6 Pleasant Hooksett, NH 03106 $176,000 1,138 sq. ft. $155
2018-08-14 Condo Contemporary; Ranch 5 Beech Hooksett, NH 03106 $245,000 1,237 sq. ft. $198
2018-08-04 Condo Townhouse 1465 Hooksett Hooksett, NH 03106 $269,900 1,620 sq. ft. $167
2018-08-03 Condo Condex 30 A Dale Hooksett, NH 03106 $249,900 1,900 sq. ft. 165,964 sq. ft. $132
2018-08-01 Condo Townhouse 1465 Hooksett Hooksett, NH 03106 $285,000 1,818 sq. ft. $157
2018-08-01 Condo Townhouse 1465 Hooksett Hooksett, NH 03106 $194,900 1,490 sq. ft. $131
2018-07-31 Condo Garden 124 Mammoth Hooksett, NH 03106 $89,000 764 sq. ft. $116
2018-07-25 Condo Townhouse 6 Pleasant Hooksett, NH 03106 $181,900 1,138 sq. ft. $160
2018-07-21 Condo Ranch 1 Crown Hill Hooksett, NH 03106 $329,900 1,430 sq. ft. $231
2018-07-20 Condo Condex; Contemporary 2 Rockforest Hooksett, NH 03106 $186,900 1,575 sq. ft. 51,836 sq. ft. $119
2018-07-18 Condo Historic Vintage 15 Mount Saint Marys Hooksett, NH 03106 $50,000
2018-07-15 Condo Townhouse 6 Pleasant Hooksett, NH 03106 $169,000 1,522 sq. ft. $111
2018-07-14 Condo Garden; Top Floor 136 Mammoth Hooksett, NH 03106 $93,000 764 sq. ft. $122
2018-07-11 Condo Townhouse 4 Dogwood Hooksett, NH 03106 $249,999 1,281 sq. ft. $195
2018-07-10 Condo Garden 134 Mammoth Hooksett, NH 03106 $77,000 630 sq. ft. $122
2018-07-09 Condo Townhouse 1465 Hooksett Hooksett, NH 03106 $269,900 2,468 sq. ft. $109
2018-07-07 Condo Townhouse 1465 Hooksett Rd #316 Sussex Hooksett, NH 03106 $199,000 1,490 sq. ft. $134
2018-07-04 Condo Garden 124 Mammoth Hooksett, NH 03106 $68,000 450 sq. ft. $151
2018-07-04 Condo Garden 134 Mammoth Hooksett, NH 03106 $68,000 450 sq. ft. $151
2018-07-04 Condo Garden 130 Mammoth Hooksett, NH 03106 $68,000 450 sq. ft. $151
2018-06-20 Condo Conversion; Historic Vintage 15 Mount St. Mary's Hooksett, NH 03106 $109,900 $160
2018-06-14 Condo Cape; Freestanding 8 Dewberry Hooksett, NH 03106 $349,900 1,916 sq. ft. $183
2018-06-05 Condo Townhouse 6 Pleasant Hooksett, NH 03106 $170,000 1,522 sq. ft. $112
2018-05-30 Condo Cape 1465 Hooksett Hooksett, NH 03106 $275,000 1,944 sq. ft. $141
2018-05-11 Condo Garden 136 Mammoth Hooksett, NH 03106 $92,900 800 sq. ft. $116
2018-03-30 Condo Townhouse 5 Manor Hooksett, NH 03106 $354,900 1,852 sq. ft. $192
2018-03-30 Condo End Unit; Townhouse 5 Manor Hooksett, NH 03106 $349,900 1,932 sq. ft. $181
2018-03-30 Condo Townhouse 5 Manor Hooksett, NH 03106 $354,900 1,852 sq. ft. $192
2018-03-30 Condo End Unit; Townhouse 5 Manor Hooksett, NH 03106 $359,900 1,932 sq. ft. $186
2018-03-15 Condo Garden 136 Mammoth Rd Hooksett, NH 03106 $75,000 700 sq. ft. $107